sensor_id;sensor_type;location;lat;lon;timestamp;P1;durP1;ratioP1;P2;durP2;ratioP2
4601;SDS011;2313;48.552;9.370;2023-07-31T00:00:34;6.63;;;1.60;;
4601;SDS011;2313;48.552;9.370;2023-07-31T00:03:00;4.30;;;1.90;;
4601;SDS011;2313;48.552;9.370;2023-07-31T00:05:25;7.20;;;1.27;;
4601;SDS011;2313;48.552;9.370;2023-07-31T00:07:51;4.97;;;1.50;;
4601;SDS011;2313;48.552;9.370;2023-07-31T00:10:17;3.37;;;1.77;;
4601;SDS011;2313;48.552;9.370;2023-07-31T00:12:43;5.73;;;1.60;;
4601;SDS011;2313;48.552;9.370;2023-07-31T00:15:10;3.17;;;1.13;;
4601;SDS011;2313;48.552;9.370;2023-07-31T00:17:36;2.20;;;1.30;;
4601;SDS011;2313;48.552;9.370;2023-07-31T00:20:02;3.47;;;1.13;;
4601;SDS011;2313;48.552;9.370;2023-07-31T00:22:27;5.03;;;1.53;;
4601;SDS011;2313;48.552;9.370;2023-07-31T00:24:53;4.93;;;1.73;;
4601;SDS011;2313;48.552;9.370;2023-07-31T00:27:19;5.13;;;1.63;;
4601;SDS011;2313;48.552;9.370;2023-07-31T00:29:44;3.97;;;1.30;;
4601;SDS011;2313;48.552;9.370;2023-07-31T00:32:10;2.80;;;1.37;;
4601;SDS011;2313;48.552;9.370;2023-07-31T00:34:36;4.57;;;1.53;;
4601;SDS011;2313;48.552;9.370;2023-07-31T00:37:02;2.20;;;1.10;;
4601;SDS011;2313;48.552;9.370;2023-07-31T00:39:27;6.70;;;1.50;;
4601;SDS011;2313;48.552;9.370;2023-07-31T00:41:54;3.47;;;1.43;;
4601;SDS011;2313;48.552;9.370;2023-07-31T00:44:20;4.47;;;1.77;;
4601;SDS011;2313;48.552;9.370;2023-07-31T00:46:45;3.33;;;1.37;;
4601;SDS011;2313;48.552;9.370;2023-07-31T00:49:11;2.80;;;1.57;;
4601;SDS011;2313;48.552;9.370;2023-07-31T00:51:37;2.60;;;1.70;;
4601;SDS011;2313;48.552;9.370;2023-07-31T00:54:03;3.90;;;1.77;;
4601;SDS011;2313;48.552;9.370;2023-07-31T00:56:29;4.70;;;1.90;;
4601;SDS011;2313;48.552;9.370;2023-07-31T00:58:55;5.70;;;1.80;;
4601;SDS011;2313;48.552;9.370;2023-07-31T01:01:21;2.93;;;1.20;;
4601;SDS011;2313;48.552;9.370;2023-07-31T01:03:47;3.50;;;1.43;;
4601;SDS011;2313;48.552;9.370;2023-07-31T01:06:34;4.20;;;1.43;;
4601;SDS011;2313;48.552;9.370;2023-07-31T01:09:11;5.97;;;1.90;;
4601;SDS011;2313;48.552;9.370;2023-07-31T01:11:52;6.77;;;1.80;;
4601;SDS011;2313;48.552;9.370;2023-07-31T01:14:19;3.63;;;1.33;;
4601;SDS011;2313;48.552;9.370;2023-07-31T01:16:45;4.90;;;1.43;;
4601;SDS011;2313;48.552;9.370;2023-07-31T01:19:10;4.47;;;1.60;;
4601;SDS011;2313;48.552;9.370;2023-07-31T01:24:30;8.40;;;1.43;;
4601;SDS011;2313;48.552;9.370;2023-07-31T01:27:08;11.03;;;3.33;;
4601;SDS011;2313;48.552;9.370;2023-07-31T01:29:43;5.17;;;1.97;;
4601;SDS011;2313;48.552;9.370;2023-07-31T01:32:09;2.20;;;1.40;;
4601;SDS011;2313;48.552;9.370;2023-07-31T01:34:36;5.40;;;1.47;;
4601;SDS011;2313;48.552;9.370;2023-07-31T01:37:02;4.50;;;1.70;;
4601;SDS011;2313;48.552;9.370;2023-07-31T01:39:28;7.33;;;2.27;;
4601;SDS011;2313;48.552;9.370;2023-07-31T01:41:53;2.37;;;1.50;;
4601;SDS011;2313;48.552;9.370;2023-07-31T01:44:19;3.63;;;1.63;;
4601;SDS011;2313;48.552;9.370;2023-07-31T01:46:45;4.93;;;2.17;;
4601;SDS011;2313;48.552;9.370;2023-07-31T01:49:10;3.70;;;2.17;;
4601;SDS011;2313;48.552;9.370;2023-07-31T01:51:36;4.30;;;1.60;;
4601;SDS011;2313;48.552;9.370;2023-07-31T01:54:02;2.70;;;1.30;;
4601;SDS011;2313;48.552;9.370;2023-07-31T01:56:28;5.27;;;1.40;;
4601;SDS011;2313;48.552;9.370;2023-07-31T01:58:54;4.93;;;1.80;;
4601;SDS011;2313;48.552;9.370;2023-07-31T02:01:19;3.33;;;1.33;;
4601;SDS011;2313;48.552;9.370;2023-07-31T02:03:45;3.77;;;1.70;;
4601;SDS011;2313;48.552;9.370;2023-07-31T02:06:10;4.13;;;1.50;;
4601;SDS011;2313;48.552;9.370;2023-07-31T02:08:36;4.30;;;1.50;;
4601;SDS011;2313;48.552;9.370;2023-07-31T02:11:02;2.77;;;1.57;;
4601;SDS011;2313;48.552;9.370;2023-07-31T02:13:28;4.10;;;1.40;;
4601;SDS011;2313;48.552;9.370;2023-07-31T02:15:53;2.20;;;1.20;;
4601;SDS011;2313;48.552;9.370;2023-07-31T02:18:19;5.07;;;1.63;;
4601;SDS011;2313;48.552;9.370;2023-07-31T02:20:53;2.33;;;1.70;;
4601;SDS011;2313;48.552;9.370;2023-07-31T02:23:19;3.57;;;1.77;;
4601;SDS011;2313;48.552;9.370;2023-07-31T02:25:45;2.83;;;1.10;;
4601;SDS011;2313;48.552;9.370;2023-07-31T02:28:11;4.70;;;1.70;;
4601;SDS011;2313;48.552;9.370;2023-07-31T02:30:37;3.53;;;1.40;;
4601;SDS011;2313;48.552;9.370;2023-07-31T02:33:02;5.07;;;1.73;;
4601;SDS011;2313;48.552;9.370;2023-07-31T02:35:29;8.23;;;2.80;;
4601;SDS011;2313;48.552;9.370;2023-07-31T02:37:54;3.80;;;1.57;;
4601;SDS011;2313;48.552;9.370;2023-07-31T02:40:20;3.53;;;1.70;;
4601;SDS011;2313;48.552;9.370;2023-07-31T02:42:45;2.40;;;1.57;;
4601;SDS011;2313;48.552;9.370;2023-07-31T02:45:11;4.33;;;1.40;;
4601;SDS011;2313;48.552;9.370;2023-07-31T02:47:36;2.77;;;1.13;;
4601;SDS011;2313;48.552;9.370;2023-07-31T02:50:02;5.33;;;1.67;;
4601;SDS011;2313;48.552;9.370;2023-07-31T02:52:28;2.40;;;1.60;;
4601;SDS011;2313;48.552;9.370;2023-07-31T02:54:54;3.57;;;1.90;;
4601;SDS011;2313;48.552;9.370;2023-07-31T02:57:20;9.53;;;1.67;;
4601;SDS011;2313;48.552;9.370;2023-07-31T02:59:45;3.60;;;1.23;;
4601;SDS011;2313;48.552;9.370;2023-07-31T03:02:11;3.73;;;1.63;;
4601;SDS011;2313;48.552;9.370;2023-07-31T03:04:38;10.60;;;1.83;;
4601;SDS011;2313;48.552;9.370;2023-07-31T03:07:03;6.33;;;1.67;;
4601;SDS011;2313;48.552;9.370;2023-07-31T03:09:29;4.20;;;1.57;;
4601;SDS011;2313;48.552;9.370;2023-07-31T03:11:55;3.30;;;1.20;;
4601;SDS011;2313;48.552;9.370;2023-07-31T03:14:20;3.33;;;1.80;;
4601;SDS011;2313;48.552;9.370;2023-07-31T03:16:46;6.30;;;1.73;;
4601;SDS011;2313;48.552;9.370;2023-07-31T03:19:11;6.17;;;1.87;;
4601;SDS011;2313;48.552;9.370;2023-07-31T03:21:37;5.23;;;2.73;;
4601;SDS011;2313;48.552;9.370;2023-07-31T03:24:03;6.27;;;2.10;;
4601;SDS011;2313;48.552;9.370;2023-07-31T03:26:30;4.10;;;1.63;;
4601;SDS011;2313;48.552;9.370;2023-07-31T03:28:56;3.87;;;2.23;;
4601;SDS011;2313;48.552;9.370;2023-07-31T03:31:22;4.23;;;1.80;;
4601;SDS011;2313;48.552;9.370;2023-07-31T03:33:47;10.30;;;1.70;;
4601;SDS011;2313;48.552;9.370;2023-07-31T03:36:13;6.20;;;1.90;;
4601;SDS011;2313;48.552;9.370;2023-07-31T03:38:39;3.03;;;1.60;;
4601;SDS011;2313;48.552;9.370;2023-07-31T03:41:04;5.13;;;1.70;;
4601;SDS011;2313;48.552;9.370;2023-07-31T03:43:31;3.33;;;1.57;;
4601;SDS011;2313;48.552;9.370;2023-07-31T03:45:58;8.60;;;2.20;;
4601;SDS011;2313;48.552;9.370;2023-07-31T03:48:25;4.40;;;1.50;;
4601;SDS011;2313;48.552;9.370;2023-07-31T03:50:50;4.80;;;1.70;;
4601;SDS011;2313;48.552;9.370;2023-07-31T03:53:16;5.10;;;1.60;;
4601;SDS011;2313;48.552;9.370;2023-07-31T03:55:42;2.63;;;1.67;;
4601;SDS011;2313;48.552;9.370;2023-07-31T03:58:07;4.93;;;1.60;;
4601;SDS011;2313;48.552;9.370;2023-07-31T04:00:33;8.37;;;1.63;;
4601;SDS011;2313;48.552;9.370;2023-07-31T04:02:59;4.10;;;2.10;;
4601;SDS011;2313;48.552;9.370;2023-07-31T04:05:24;4.30;;;2.50;;
4601;SDS011;2313;48.552;9.370;2023-07-31T04:07:50;5.30;;;2.27;;
4601;SDS011;2313;48.552;9.370;2023-07-31T04:10:15;5.53;;;1.87;;
4601;SDS011;2313;48.552;9.370;2023-07-31T04:12:41;7.13;;;2.10;;
4601;SDS011;2313;48.552;9.370;2023-07-31T04:15:07;4.13;;;1.63;;
4601;SDS011;2313;48.552;9.370;2023-07-31T04:17:32;4.90;;;1.77;;
4601;SDS011;2313;48.552;9.370;2023-07-31T04:19:58;7.33;;;2.33;;
4601;SDS011;2313;48.552;9.370;2023-07-31T04:22:24;5.23;;;2.20;;
4601;SDS011;2313;48.552;9.370;2023-07-31T04:24:49;5.40;;;1.80;;
4601;SDS011;2313;48.552;9.370;2023-07-31T04:27:15;3.23;;;1.50;;
4601;SDS011;2313;48.552;9.370;2023-07-31T04:29:40;3.07;;;1.60;;
4601;SDS011;2313;48.552;9.370;2023-07-31T04:32:07;5.27;;;2.00;;
4601;SDS011;2313;48.552;9.370;2023-07-31T04:34:33;4.47;;;1.33;;
4601;SDS011;2313;48.552;9.370;2023-07-31T04:36:58;2.00;;;1.33;;
4601;SDS011;2313;48.552;9.370;2023-07-31T04:39:24;3.73;;;2.17;;
4601;SDS011;2313;48.552;9.370;2023-07-31T04:41:50;4.77;;;1.80;;
4601;SDS011;2313;48.552;9.370;2023-07-31T04:44:15;3.47;;;1.70;;
4601;SDS011;2313;48.552;9.370;2023-07-31T04:46:41;5.63;;;1.90;;
4601;SDS011;2313;48.552;9.370;2023-07-31T04:49:06;6.20;;;1.90;;
4601;SDS011;2313;48.552;9.370;2023-07-31T04:51:32;3.83;;;1.40;;
4601;SDS011;2313;48.552;9.370;2023-07-31T04:53:57;2.80;;;1.70;;
4601;SDS011;2313;48.552;9.370;2023-07-31T04:56:23;10.33;;;2.00;;
4601;SDS011;2313;48.552;9.370;2023-07-31T04:58:49;9.43;;;1.70;;
4601;SDS011;2313;48.552;9.370;2023-07-31T05:01:14;4.73;;;1.60;;
4601;SDS011;2313;48.552;9.370;2023-07-31T05:03:40;3.17;;;1.57;;
4601;SDS011;2313;48.552;9.370;2023-07-31T05:06:05;4.07;;;1.20;;
4601;SDS011;2313;48.552;9.370;2023-07-31T05:08:31;4.87;;;1.60;;
4601;SDS011;2313;48.552;9.370;2023-07-31T05:10:56;3.87;;;1.60;;
4601;SDS011;2313;48.552;9.370;2023-07-31T05:13:22;6.70;;;2.10;;
4601;SDS011;2313;48.552;9.370;2023-07-31T05:15:48;2.43;;;1.50;;
4601;SDS011;2313;48.552;9.370;2023-07-31T05:18:14;2.40;;;1.47;;
4601;SDS011;2313;48.552;9.370;2023-07-31T05:20:40;3.60;;;1.40;;
4601;SDS011;2313;48.552;9.370;2023-07-31T05:23:06;2.33;;;1.50;;
4601;SDS011;2313;48.552;9.370;2023-07-31T05:25:32;2.33;;;1.70;;
4601;SDS011;2313;48.552;9.370;2023-07-31T05:27:57;2.80;;;1.43;;
4601;SDS011;2313;48.552;9.370;2023-07-31T05:30:23;5.37;;;1.20;;
4601;SDS011;2313;48.552;9.370;2023-07-31T05:32:48;7.40;;;1.67;;
4601;SDS011;2313;48.552;9.370;2023-07-31T05:35:14;4.80;;;1.87;;
4601;SDS011;2313;48.552;9.370;2023-07-31T05:37:40;8.73;;;1.47;;
4601;SDS011;2313;48.552;9.370;2023-07-31T05:40:05;1.87;;;1.50;;
4601;SDS011;2313;48.552;9.370;2023-07-31T05:42:31;4.10;;;1.60;;
4601;SDS011;2313;48.552;9.370;2023-07-31T05:44:57;1.93;;;1.13;;
4601;SDS011;2313;48.552;9.370;2023-07-31T05:47:23;5.37;;;2.00;;
4601;SDS011;2313;48.552;9.370;2023-07-31T05:49:48;5.07;;;1.77;;
4601;SDS011;2313;48.552;9.370;2023-07-31T05:52:17;5.10;;;1.20;;
4601;SDS011;2313;48.552;9.370;2023-07-31T05:54:43;8.13;;;2.00;;
4601;SDS011;2313;48.552;9.370;2023-07-31T05:57:08;4.30;;;1.53;;
4601;SDS011;2313;48.552;9.370;2023-07-31T05:59:34;1.80;;;1.50;;
4601;SDS011;2313;48.552;9.370;2023-07-31T06:02:00;4.10;;;2.00;;
4601;SDS011;2313;48.552;9.370;2023-07-31T06:04:25;8.07;;;1.73;;
4601;SDS011;2313;48.552;9.370;2023-07-31T06:06:51;3.87;;;1.60;;
4601;SDS011;2313;48.552;9.370;2023-07-31T06:09:17;17.27;;;2.07;;
4601;SDS011;2313;48.552;9.370;2023-07-31T06:11:42;6.60;;;2.20;;
4601;SDS011;2313;48.552;9.370;2023-07-31T06:14:08;5.80;;;1.87;;
4601;SDS011;2313;48.552;9.370;2023-07-31T06:16:33;6.80;;;1.83;;
4601;SDS011;2313;48.552;9.370;2023-07-31T06:19:00;7.20;;;2.20;;
4601;SDS011;2313;48.552;9.370;2023-07-31T06:21:26;4.30;;;1.23;;
4601;SDS011;2313;48.552;9.370;2023-07-31T06:23:52;5.67;;;1.70;;
4601;SDS011;2313;48.552;9.370;2023-07-31T06:26:17;3.10;;;1.30;;
4601;SDS011;2313;48.552;9.370;2023-07-31T06:28:43;4.87;;;2.07;;
4601;SDS011;2313;48.552;9.370;2023-07-31T06:31:08;5.10;;;1.70;;
4601;SDS011;2313;48.552;9.370;2023-07-31T06:33:34;3.40;;;1.10;;
4601;SDS011;2313;48.552;9.370;2023-07-31T06:36:00;4.33;;;1.70;;
4601;SDS011;2313;48.552;9.370;2023-07-31T06:38:26;3.30;;;1.60;;
4601;SDS011;2313;48.552;9.370;2023-07-31T06:40:52;3.90;;;1.50;;
4601;SDS011;2313;48.552;9.370;2023-07-31T06:43:18;12.47;;;1.90;;
4601;SDS011;2313;48.552;9.370;2023-07-31T06:45:44;6.90;;;2.33;;
4601;SDS011;2313;48.552;9.370;2023-07-31T06:48:10;6.57;;;1.83;;
4601;SDS011;2313;48.552;9.370;2023-07-31T06:50:36;5.57;;;1.70;;
4601;SDS011;2313;48.552;9.370;2023-07-31T06:53:02;4.57;;;2.10;;
4601;SDS011;2313;48.552;9.370;2023-07-31T06:55:27;3.73;;;1.77;;
4601;SDS011;2313;48.552;9.370;2023-07-31T06:57:54;9.23;;;2.17;;
4601;SDS011;2313;48.552;9.370;2023-07-31T07:00:20;2.53;;;1.40;;
4601;SDS011;2313;48.552;9.370;2023-07-31T07:02:47;3.40;;;1.63;;
4601;SDS011;2313;48.552;9.370;2023-07-31T07:05:13;5.43;;;1.90;;
4601;SDS011;2313;48.552;9.370;2023-07-31T07:07:40;2.33;;;1.47;;
4601;SDS011;2313;48.552;9.370;2023-07-31T07:10:06;2.77;;;1.70;;
4601;SDS011;2313;48.552;9.370;2023-07-31T07:12:32;4.57;;;1.40;;
4601;SDS011;2313;48.552;9.370;2023-07-31T07:14:58;5.30;;;1.70;;
4601;SDS011;2313;48.552;9.370;2023-07-31T07:17:25;4.10;;;1.90;;
4601;SDS011;2313;48.552;9.370;2023-07-31T07:19:51;5.80;;;2.23;;
4601;SDS011;2313;48.552;9.370;2023-07-31T07:22:17;2.53;;;1.40;;
4601;SDS011;2313;48.552;9.370;2023-07-31T07:24:43;6.30;;;1.90;;
4601;SDS011;2313;48.552;9.370;2023-07-31T07:27:08;4.87;;;2.10;;
4601;SDS011;2313;48.552;9.370;2023-07-31T07:29:34;3.73;;;1.90;;
4601;SDS011;2313;48.552;9.370;2023-07-31T07:32:00;8.87;;;2.40;;
4601;SDS011;2313;48.552;9.370;2023-07-31T07:34:26;6.67;;;1.90;;
4601;SDS011;2313;48.552;9.370;2023-07-31T07:36:52;5.00;;;1.83;;
4601;SDS011;2313;48.552;9.370;2023-07-31T07:39:18;6.30;;;2.10;;
4601;SDS011;2313;48.552;9.370;2023-07-31T07:41:44;4.70;;;2.00;;
4601;SDS011;2313;48.552;9.370;2023-07-31T07:44:09;2.23;;;1.60;;
4601;SDS011;2313;48.552;9.370;2023-07-31T07:46:35;3.00;;;1.67;;
4601;SDS011;2313;48.552;9.370;2023-07-31T07:49:00;4.57;;;2.23;;
4601;SDS011;2313;48.552;9.370;2023-07-31T07:51:26;6.10;;;1.70;;
4601;SDS011;2313;48.552;9.370;2023-07-31T07:53:52;5.70;;;2.00;;
4601;SDS011;2313;48.552;9.370;2023-07-31T07:56:17;2.67;;;1.20;;
4601;SDS011;2313;48.552;9.370;2023-07-31T07:58:43;7.57;;;2.27;;
4601;SDS011;2313;48.552;9.370;2023-07-31T08:01:09;9.50;;;2.10;;
4601;SDS011;2313;48.552;9.370;2023-07-31T08:03:34;4.53;;;2.20;;
4601;SDS011;2313;48.552;9.370;2023-07-31T08:06:00;6.03;;;2.10;;
4601;SDS011;2313;48.552;9.370;2023-07-31T08:08:27;4.63;;;2.53;;
4601;SDS011;2313;48.552;9.370;2023-07-31T08:10:53;6.43;;;2.43;;
4601;SDS011;2313;48.552;9.370;2023-07-31T08:13:19;4.73;;;1.70;;
4601;SDS011;2313;48.552;9.370;2023-07-31T08:15:45;3.20;;;2.00;;
4601;SDS011;2313;48.552;9.370;2023-07-31T08:18:10;5.43;;;2.40;;
4601;SDS011;2313;48.552;9.370;2023-07-31T08:20:36;3.77;;;1.87;;
4601;SDS011;2313;48.552;9.370;2023-07-31T08:23:02;5.03;;;2.23;;
4601;SDS011;2313;48.552;9.370;2023-07-31T08:25:28;6.83;;;2.03;;
4601;SDS011;2313;48.552;9.370;2023-07-31T08:27:55;4.30;;;2.10;;
4601;SDS011;2313;48.552;9.370;2023-07-31T08:30:20;2.77;;;1.90;;
4601;SDS011;2313;48.552;9.370;2023-07-31T08:32:46;6.10;;;2.40;;
4601;SDS011;2313;48.552;9.370;2023-07-31T08:35:12;4.30;;;2.13;;
4601;SDS011;2313;48.552;9.370;2023-07-31T08:37:37;5.30;;;2.07;;
4601;SDS011;2313;48.552;9.370;2023-07-31T08:40:04;4.53;;;2.07;;
4601;SDS011;2313;48.552;9.370;2023-07-31T08:42:30;5.37;;;2.20;;
4601;SDS011;2313;48.552;9.370;2023-07-31T08:44:56;4.83;;;2.47;;
4601;SDS011;2313;48.552;9.370;2023-07-31T08:47:25;6.03;;;1.83;;
4601;SDS011;2313;48.552;9.370;2023-07-31T08:49:52;4.93;;;2.00;;
4601;SDS011;2313;48.552;9.370;2023-07-31T08:52:19;5.10;;;2.10;;
4601;SDS011;2313;48.552;9.370;2023-07-31T08:54:45;5.07;;;2.47;;
4601;SDS011;2313;48.552;9.370;2023-07-31T08:57:12;8.10;;;2.60;;
4601;SDS011;2313;48.552;9.370;2023-07-31T08:59:38;9.03;;;2.57;;
4601;SDS011;2313;48.552;9.370;2023-07-31T09:02:06;6.70;;;2.70;;
4601;SDS011;2313;48.552;9.370;2023-07-31T09:04:33;4.80;;;2.03;;
4601;SDS011;2313;48.552;9.370;2023-07-31T09:07:03;4.83;;;2.13;;
4601;SDS011;2313;48.552;9.370;2023-07-31T09:09:30;3.93;;;2.03;;
4601;SDS011;2313;48.552;9.370;2023-07-31T09:11:57;4.30;;;2.43;;
4601;SDS011;2313;48.552;9.370;2023-07-31T09:14:24;5.93;;;2.20;;
4601;SDS011;2313;48.552;9.370;2023-07-31T09:16:51;8.27;;;2.57;;
4601;SDS011;2313;48.552;9.370;2023-07-31T09:19:34;6.47;;;2.00;;
4601;SDS011;2313;48.552;9.370;2023-07-31T09:22:04;11.03;;;2.33;;
4601;SDS011;2313;48.552;9.370;2023-07-31T09:24:31;6.53;;;2.70;;
4601;SDS011;2313;48.552;9.370;2023-07-31T09:26:58;4.80;;;1.80;;
4601;SDS011;2313;48.552;9.370;2023-07-31T09:29:26;4.57;;;2.17;;
4601;SDS011;2313;48.552;9.370;2023-07-31T09:31:53;9.20;;;2.83;;
4601;SDS011;2313;48.552;9.370;2023-07-31T09:34:20;6.00;;;2.00;;
4601;SDS011;2313;48.552;9.370;2023-07-31T09:36:52;4.90;;;2.20;;
4601;SDS011;2313;48.552;9.370;2023-07-31T09:39:18;6.80;;;2.70;;
4601;SDS011;2313;48.552;9.370;2023-07-31T09:41:53;5.13;;;2.50;;
4601;SDS011;2313;48.552;9.370;2023-07-31T09:44:19;6.23;;;2.37;;
4601;SDS011;2313;48.552;9.370;2023-07-31T09:46:46;3.83;;;2.10;;
4601;SDS011;2313;48.552;9.370;2023-07-31T09:49:12;7.00;;;2.57;;
4601;SDS011;2313;48.552;9.370;2023-07-31T09:51:39;3.80;;;2.03;;
4601;SDS011;2313;48.552;9.370;2023-07-31T09:54:13;5.33;;;2.53;;
4601;SDS011;2313;48.552;9.370;2023-07-31T09:56:43;4.00;;;1.93;;
4601;SDS011;2313;48.552;9.370;2023-07-31T09:59:17;7.90;;;2.30;;
4601;SDS011;2313;48.552;9.370;2023-07-31T10:01:45;7.70;;;2.43;;
4601;SDS011;2313;48.552;9.370;2023-07-31T10:04:12;5.20;;;2.20;;
4601;SDS011;2313;48.552;9.370;2023-07-31T10:06:39;6.13;;;2.30;;
4601;SDS011;2313;48.552;9.370;2023-07-31T10:09:07;6.93;;;2.53;;
4601;SDS011;2313;48.552;9.370;2023-07-31T10:11:41;5.43;;;1.90;;
4601;SDS011;2313;48.552;9.370;2023-07-31T10:14:10;11.33;;;3.23;;
4601;SDS011;2313;48.552;9.370;2023-07-31T10:16:37;6.90;;;2.20;;
4601;SDS011;2313;48.552;9.370;2023-07-31T10:19:04;4.50;;;2.03;;
4601;SDS011;2313;48.552;9.370;2023-07-31T10:21:31;3.30;;;2.20;;
4601;SDS011;2313;48.552;9.370;2023-07-31T10:24:00;4.30;;;2.30;;
4601;SDS011;2313;48.552;9.370;2023-07-31T10:26:28;8.23;;;2.50;;
4601;SDS011;2313;48.552;9.370;2023-07-31T10:28:55;5.80;;;2.67;;
4601;SDS011;2313;48.552;9.370;2023-07-31T10:31:22;8.20;;;2.50;;
4601;SDS011;2313;48.552;9.370;2023-07-31T10:33:49;4.03;;;2.47;;
4601;SDS011;2313;48.552;9.370;2023-07-31T10:36:17;4.80;;;2.63;;
4601;SDS011;2313;48.552;9.370;2023-07-31T10:38:44;4.17;;;1.90;;
4601;SDS011;2313;48.552;9.370;2023-07-31T10:41:11;5.03;;;2.40;;
4601;SDS011;2313;48.552;9.370;2023-07-31T10:43:37;4.47;;;2.20;;
4601;SDS011;2313;48.552;9.370;2023-07-31T10:46:06;4.70;;;1.90;;
4601;SDS011;2313;48.552;9.370;2023-07-31T10:48:34;5.07;;;3.07;;
4601;SDS011;2313;48.552;9.370;2023-07-31T10:51:01;3.37;;;2.00;;
4601;SDS011;2313;48.552;9.370;2023-07-31T10:53:36;4.37;;;2.30;;
4601;SDS011;2313;48.552;9.370;2023-07-31T10:56:07;11.00;;;2.33;;
4601;SDS011;2313;48.552;9.370;2023-07-31T10:58:34;4.70;;;2.23;;
4601;SDS011;2313;48.552;9.370;2023-07-31T11:01:00;3.07;;;1.90;;
4601;SDS011;2313;48.552;9.370;2023-07-31T11:03:45;3.97;;;2.10;;
4601;SDS011;2313;48.552;9.370;2023-07-31T11:06:12;5.73;;;2.23;;
4601;SDS011;2313;48.552;9.370;2023-07-31T11:08:48;6.13;;;2.00;;
4601;SDS011;2313;48.552;9.370;2023-07-31T11:11:16;6.90;;;2.40;;
4601;SDS011;2313;48.552;9.370;2023-07-31T11:13:43;7.43;;;2.80;;
4601;SDS011;2313;48.552;9.370;2023-07-31T11:16:11;9.57;;;3.10;;
4601;SDS011;2313;48.552;9.370;2023-07-31T11:18:38;3.90;;;2.47;;
4601;SDS011;2313;48.552;9.370;2023-07-31T11:21:05;5.83;;;2.77;;
4601;SDS011;2313;48.552;9.370;2023-07-31T11:23:31;6.07;;;2.60;;
4601;SDS011;2313;48.552;9.370;2023-07-31T11:26:00;8.63;;;2.10;;
4601;SDS011;2313;48.552;9.370;2023-07-31T11:28:30;5.93;;;2.87;;
4601;SDS011;2313;48.552;9.370;2023-07-31T11:30:57;3.53;;;2.23;;
4601;SDS011;2313;48.552;9.370;2023-07-31T11:33:23;3.37;;;2.00;;
4601;SDS011;2313;48.552;9.370;2023-07-31T11:35:48;7.40;;;2.20;;
4601;SDS011;2313;48.552;9.370;2023-07-31T11:38:47;4.93;;;2.30;;
4601;SDS011;2313;48.552;9.370;2023-07-31T11:41:06;5.23;;;2.30;;
4601;SDS011;2313;48.552;9.370;2023-07-31T11:43:32;7.20;;;2.43;;
4601;SDS011;2313;48.552;9.370;2023-07-31T11:45:58;5.00;;;2.67;;
4601;SDS011;2313;48.552;9.370;2023-07-31T11:48:32;5.67;;;2.43;;
4601;SDS011;2313;48.552;9.370;2023-07-31T11:51:01;3.50;;;2.43;;
4601;SDS011;2313;48.552;9.370;2023-07-31T11:55:54;8.13;;;2.10;;
4601;SDS011;2313;48.552;9.370;2023-07-31T11:58:20;4.10;;;2.40;;
4601;SDS011;2313;48.552;9.370;2023-07-31T12:00:46;7.27;;;2.50;;
4601;SDS011;2313;48.552;9.370;2023-07-31T12:03:13;3.80;;;2.70;;
4601;SDS011;2313;48.552;9.370;2023-07-31T12:05:39;4.50;;;2.13;;
4601;SDS011;2313;48.552;9.370;2023-07-31T12:08:10;4.17;;;2.30;;
4601;SDS011;2313;48.552;9.370;2023-07-31T12:10:37;7.37;;;2.70;;
4601;SDS011;2313;48.552;9.370;2023-07-31T12:13:04;5.50;;;2.80;;
4601;SDS011;2313;48.552;9.370;2023-07-31T12:15:41;4.47;;;2.40;;
4601;SDS011;2313;48.552;9.370;2023-07-31T12:18:12;4.40;;;2.87;;
4601;SDS011;2313;48.552;9.370;2023-07-31T12:25:41;4.80;;;2.23;;
4601;SDS011;2313;48.552;9.370;2023-07-31T12:28:07;5.70;;;2.70;;
4601;SDS011;2313;48.552;9.370;2023-07-31T12:30:36;4.67;;;2.80;;
4601;SDS011;2313;48.552;9.370;2023-07-31T12:33:14;5.30;;;2.50;;
4601;SDS011;2313;48.552;9.370;2023-07-31T12:35:40;3.70;;;3.17;;
4601;SDS011;2313;48.552;9.370;2023-07-31T12:38:11;3.80;;;2.70;;
4601;SDS011;2313;48.552;9.370;2023-07-31T12:40:38;5.63;;;2.57;;
4601;SDS011;2313;48.552;9.370;2023-07-31T12:43:05;6.87;;;3.20;;
4601;SDS011;2313;48.552;9.370;2023-07-31T12:45:32;4.80;;;2.03;;
4601;SDS011;2313;48.552;9.370;2023-07-31T12:47:58;4.17;;;2.43;;
4601;SDS011;2313;48.552;9.370;2023-07-31T12:50:24;7.93;;;2.97;;
4601;SDS011;2313;48.552;9.370;2023-07-31T12:52:50;4.67;;;3.20;;
4601;SDS011;2313;48.552;9.370;2023-07-31T12:55:18;6.30;;;3.00;;
4601;SDS011;2313;48.552;9.370;2023-07-31T12:57:43;5.50;;;2.70;;
4601;SDS011;2313;48.552;9.370;2023-07-31T13:00:09;8.00;;;3.30;;
4601;SDS011;2313;48.552;9.370;2023-07-31T13:02:36;4.33;;;2.70;;
4601;SDS011;2313;48.552;9.370;2023-07-31T13:05:02;10.17;;;3.40;;
4601;SDS011;2313;48.552;9.370;2023-07-31T13:07:27;7.00;;;4.10;;
4601;SDS011;2313;48.552;9.370;2023-07-31T13:09:53;5.50;;;2.87;;
4601;SDS011;2313;48.552;9.370;2023-07-31T13:12:19;4.70;;;2.73;;
4601;SDS011;2313;48.552;9.370;2023-07-31T13:14:44;6.03;;;3.00;;
4601;SDS011;2313;48.552;9.370;2023-07-31T13:17:10;6.20;;;2.80;;
4601;SDS011;2313;48.552;9.370;2023-07-31T13:19:35;4.40;;;2.80;;
4601;SDS011;2313;48.552;9.370;2023-07-31T13:22:01;5.57;;;3.00;;
4601;SDS011;2313;48.552;9.370;2023-07-31T13:24:27;5.00;;;2.70;;
4601;SDS011;2313;48.552;9.370;2023-07-31T13:26:52;7.73;;;3.07;;
4601;SDS011;2313;48.552;9.370;2023-07-31T13:29:18;3.80;;;2.33;;
4601;SDS011;2313;48.552;9.370;2023-07-31T13:31:44;5.70;;;2.70;;
4601;SDS011;2313;48.552;9.370;2023-07-31T13:34:09;4.60;;;2.90;;
4601;SDS011;2313;48.552;9.370;2023-07-31T13:36:35;5.13;;;2.43;;
4601;SDS011;2313;48.552;9.370;2023-07-31T13:39:02;3.67;;;3.10;;
4601;SDS011;2313;48.552;9.370;2023-07-31T13:41:28;5.63;;;2.77;;
4601;SDS011;2313;48.552;9.370;2023-07-31T13:43:53;3.30;;;2.73;;
4601;SDS011;2313;48.552;9.370;2023-07-31T13:46:19;6.10;;;2.83;;
4601;SDS011;2313;48.552;9.370;2023-07-31T13:48:45;4.43;;;3.07;;
4601;SDS011;2313;48.552;9.370;2023-07-31T13:51:10;5.43;;;3.20;;
4601;SDS011;2313;48.552;9.370;2023-07-31T13:53:36;4.20;;;2.90;;
4601;SDS011;2313;48.552;9.370;2023-07-31T13:56:01;4.63;;;3.20;;
4601;SDS011;2313;48.552;9.370;2023-07-31T13:58:27;3.90;;;2.80;;
4601;SDS011;2313;48.552;9.370;2023-07-31T14:00:53;9.20;;;3.30;;
4601;SDS011;2313;48.552;9.370;2023-07-31T14:03:18;5.10;;;3.20;;
4601;SDS011;2313;48.552;9.370;2023-07-31T14:05:44;5.73;;;2.30;;
4601;SDS011;2313;48.552;9.370;2023-07-31T14:08:10;6.10;;;2.60;;
4601;SDS011;2313;48.552;9.370;2023-07-31T14:10:35;3.87;;;2.57;;
4601;SDS011;2313;48.552;9.370;2023-07-31T14:13:01;4.43;;;2.63;;
4601;SDS011;2313;48.552;9.370;2023-07-31T14:15:27;6.63;;;2.17;;
4601;SDS011;2313;48.552;9.370;2023-07-31T14:17:53;5.27;;;2.57;;
4601;SDS011;2313;48.552;9.370;2023-07-31T14:20:19;6.37;;;2.77;;
4601;SDS011;2313;48.552;9.370;2023-07-31T14:22:44;5.20;;;3.07;;
4601;SDS011;2313;48.552;9.370;2023-07-31T14:25:10;4.73;;;3.00;;
4601;SDS011;2313;48.552;9.370;2023-07-31T14:27:36;7.10;;;2.70;;
4601;SDS011;2313;48.552;9.370;2023-07-31T14:30:02;7.10;;;2.87;;
4601;SDS011;2313;48.552;9.370;2023-07-31T14:32:28;5.23;;;2.40;;
4601;SDS011;2313;48.552;9.370;2023-07-31T14:34:54;3.37;;;2.67;;
4601;SDS011;2313;48.552;9.370;2023-07-31T14:37:20;4.87;;;3.13;;
4601;SDS011;2313;48.552;9.370;2023-07-31T14:39:46;8.97;;;2.93;;
4601;SDS011;2313;48.552;9.370;2023-07-31T14:42:11;11.60;;;3.20;;
4601;SDS011;2313;48.552;9.370;2023-07-31T14:44:37;4.17;;;2.30;;
4601;SDS011;2313;48.552;9.370;2023-07-31T14:47:03;4.53;;;2.73;;
4601;SDS011;2313;48.552;9.370;2023-07-31T14:49:29;3.53;;;2.83;;
4601;SDS011;2313;48.552;9.370;2023-07-31T14:51:54;4.00;;;2.63;;
4601;SDS011;2313;48.552;9.370;2023-07-31T14:54:20;5.53;;;3.27;;
4601;SDS011;2313;48.552;9.370;2023-07-31T14:56:46;5.43;;;2.97;;
4601;SDS011;2313;48.552;9.370;2023-07-31T14:59:12;4.10;;;2.57;;
4601;SDS011;2313;48.552;9.370;2023-07-31T15:01:37;5.50;;;2.23;;
4601;SDS011;2313;48.552;9.370;2023-07-31T15:04:03;4.93;;;2.83;;
4601;SDS011;2313;48.552;9.370;2023-07-31T15:06:29;3.63;;;2.33;;
4601;SDS011;2313;48.552;9.370;2023-07-31T15:08:54;5.13;;;2.90;;
4601;SDS011;2313;48.552;9.370;2023-07-31T15:11:20;3.50;;;2.20;;
4601;SDS011;2313;48.552;9.370;2023-07-31T15:13:46;4.43;;;2.50;;
4601;SDS011;2313;48.552;9.370;2023-07-31T15:16:11;3.50;;;2.83;;
4601;SDS011;2313;48.552;9.370;2023-07-31T15:18:37;4.73;;;2.90;;
4601;SDS011;2313;48.552;9.370;2023-07-31T15:21:03;6.40;;;2.73;;